METAR Data
IDs: Format: Raw Decoded Include TAF

Data at: 0036 UTC 14 May 2021

KCFO 132347Z 00000KT 10SM SCT040 SCT090 23/M01 A3010
KCFO 132247Z 01005KT 10SM FEW025 SCT080 23/M01 A3009
KCFO 132147Z 36010KT 10SM SCT100 SCT150 25/M01 A3011
KCFO 132050Z 36011KT 10SM SCT100 SCT150 24/M01 A3012
KCFO 131958Z 02010KT 10SM SCT180 24/M02 A3014
KCFO 131858Z 35005KT 10SM SCT180 23/M03 A3016
KCFO 131747Z 28010G20KT 10SM SCT180 22/M02 A3018
KCFO 131652Z 00000KT 10SM FEW160 SCT220 21/02 A3018
KCFO 131555Z 00000KT 10SM SCT220 05/03 A3019
KCFO 131450Z 25006KT 10SM SCT220 13/05 A3020
KCFO 131351Z 23008KT 10SM SCT200 11/05 A3021
KCFO 131250Z 00000KT 10SM SCT150 08/04 A3022
KCFO 131235Z AUTO 24006KT 10SM CLR 08/05 A3022 RMK AO2 T00750045
KCFO 131215Z AUTO 00000KT 10SM CLR 07/04 A3022 RMK AO2 T00670036
KCFO 131155Z AUTO 23006KT 10SM CLR 07/04 A3021 RMK AO2 T00710040 10092 20070
KCFO 131135Z AUTO 23007KT 10SM CLR 08/04 A3022 RMK AO2 T00750042
KCFO 131115Z AUTO 22005KT 10SM CLR 08/05 A3022 RMK AO2 T00750047
KCFO 131055Z AUTO 21008KT 10SM CLR 07/05 A3022 RMK AO2 T00710047
KCFO 131035Z AUTO 20010KT 10SM CLR 07/05 A3022 RMK AO2 T00700047
KCFO 131015Z AUTO 20008KT 10SM CLR 07/05 A3023 RMK AO2 T00700047
KCFO 130955Z AUTO 21003KT 10SM CLR 08/05 A3023 RMK AO2 T00750050
KCFO 130935Z AUTO 00000KT 10SM CLR 08/05 A3024 RMK AO2 T00750050
KCFO 130915Z AUTO 20008KT 10SM CLR 08/05 A3024 RMK AO2 T00750050
KCFO 130855Z AUTO 21009KT 10SM CLR 08/05 A3024 RMK AO2 T00760049
KCFO 130835Z AUTO 20011KT 10SM CLR 08/05 A3024 RMK AO2 T00780050
KCFO 130815Z AUTO 00000KT 10SM CLR 08/05 A3024 RMK AO2 T00800049
KCFO 130755Z AUTO 20012KT 10SM CLR 08/05 A3025 RMK AO2 T00830048
KCFO 130735Z AUTO 20013KT 10SM CLR 09/05 A3025 RMK AO2 T00860047
KCFO 130715Z AUTO 20015KT 10SM CLR 09/05 A3025 RMK AO2 T00890046
KCFO 130655Z AUTO 20013KT 10SM CLR 09/05 A3026 RMK AO2 T00900047 401970013
KCFO 130635Z AUTO 20014KT 10SM CLR 09/05 A3026 RMK AO2 T00900047
KCFO 130615Z AUTO 20012KT 10SM CLR 09/05 A3027 RMK AO2 T00900047
KCFO 130555Z AUTO 20011KT 10SM CLR 09/05 A3027 RMK AO2 T00920048 10188 20092
KCFO 130535Z AUTO 20013KT 10SM CLR 10/05 A3027 RMK AO2 T00950048
KCFO 130515Z AUTO 20012KT 10SM CLR 10/05 A3027 RMK AO2 T00970050
KCFO 130455Z AUTO 20012KT 10SM CLR 10/05 A3027 RMK AO2 T00950052
KCFO 130435Z AUTO 20010KT 10SM CLR 10/06 A3027 RMK AO2 T00970055
KCFO 130415Z AUTO 18010KT 10SM CLR 10/06 A3027 RMK AO2 T01010058
KCFO 130355Z AUTO 19009KT 10SM CLR 11/06 A3026 RMK AO2 T01090057
KCFO 130335Z AUTO 00000KT 10SM CLR 11/06 A3026 RMK AO2 T01050060
KCFO 130315Z AUTO 00000KT 10SM CLR 11/06 A3025 RMK AO2 T01120060
KCFO 130247Z 10006KT 10SM SCT080 11/04 A3024
KCFO 130147Z 09007KT 10SM SCT080 14/03 A3023
KCFO 130055Z 05006KT 10SM FEW080 18/00 A3022
KCFO 122350Z 00000KT 10SM FEW080 19/00 A3022
KCFO 122258Z 00000KT 10SM FEW080 19/M01 A3022
KCFO 122052Z 00000KT 10SM FEW080 18/M01 A3024
KCFO 121950Z 00000KT 10SM FEW020 FEW100 17/M01 A3025
KCFO 121749Z 00000KT 10SM FEW020 FEW100 14/04 A3028
KCFO 121647Z 00000KT 10SM FEW020 FEW100 12/04 A3029
KCFO 121547Z 00000KT 10SM FEW040 11/03 A3029
KCFO 121456Z 00000KT 10SM FEW040 08/03 A3029
KCFO 121347Z 00000KT 10SM FEW040 FEW120 07/03 A3030
KCFO 121247Z 20006KT 10SM FEW040 FEW120 03/02 A3029